Time;durP1;ratioP1;P1;durP2;ratioP2;P2;SDS_P1;SDS_P2;PMS_P1;PMS_P2;Temp;Humidity;BMP_temperature;BMP_pressure;BME280_temperature;BME280_humidity;BME280_pressure;Samples;Min_cycle;Max_cycle;Signal;HPM_P1;HPM_P2
2023/11/16 00:02:16;;;;;;;5.13;4.72;;;;;;;6.63;100.00;100842.81;6073120;23;20670;-72
2023/11/16 00:04:43;;;;;;;4.88;4.20;;;;;;;7.08;100.00;100920.44;6077308;23;20024;-73
2023/11/16 00:07:10;;;;;;;4.43;4.13;;;;;;;6.62;100.00;100841.13;6046792;23;20049;-72
2023/11/16 00:09:37;;;;;;;7.47;4.50;;;;;;;7.19;100.00;100918.31;6075933;23;20017;-71
2023/11/16 00:12:04;;;;;;;4.15;3.85;;;;;;;6.75;100.00;100823.31;6078467;23;20034;-73
2023/11/16 00:14:31;;;;;;;4.25;3.95;;;;;;;7.24;100.00;100893.84;6073216;23;20041;-73
2023/11/16 00:17:00;;;;;;;10.00;6.00;;;;;;;6.76;100.00;100799.78;6068052;23;20093;-73
2023/11/16 00:19:27;;;;;;;4.50;4.20;;;;;;;7.29;100.00;100865.78;6045658;23;20319;-72
2023/11/16 00:21:54;;;;;;;8.88;4.28;;;;;;;7.34;100.00;100876.94;6076158;23;20531;-73
2023/11/16 00:24:25;;;;;;;5.22;4.80;;;;;;;7.04;100.00;100808.41;6078995;23;20026;-73
2023/11/16 00:26:52;;;;;;;5.32;5.05;;;;;;;7.09;100.00;100812.53;6051390;23;20026;-73
2023/11/16 00:29:18;;;;;;;4.80;4.40;;;;;;;6.05;100.00;100644.09;6079608;23;20105;-74
2023/11/16 00:31:45;;;;;;;4.70;4.50;;;;;;;6.71;100.00;100733.03;6082192;23;20404;-73
2023/11/16 00:34:11;;;;;;;18.58;5.38;;;;;;;6.70;100.00;100731.34;6031822;23;20046;-72
2023/11/16 00:36:42;;;;;;;4.25;4.05;;;;;;;7.36;100.00;100828.13;6074161;23;20018;-73
2023/11/16 00:39:10;;;;;;;5.20;4.90;;;;;;;7.34;100.00;100809.91;6076593;23;20033;-72
2023/11/16 00:41:36;;;;;;;5.50;5.07;;;;;;;7.40;100.00;100801.00;6079001;23;20080;-73
2023/11/16 00:44:05;;;;;;;4.60;4.30;;;;;;;7.39;100.00;100823.59;6057758;23;20236;-74
2023/11/16 00:46:35;;;;;;;4.30;4.10;;;;;;;6.75;100.00;100709.38;6074865;23;20060;-74
2023/11/16 00:49:02;;;;;;;5.25;5.05;;;;;;;7.22;100.00;100785.97;6076591;23;20244;-73
2023/11/16 00:51:29;;;;;;;4.72;4.30;;;;;;;7.18;100.00;100780.91;6052452;23;20030;-73
2023/11/16 00:53:58;;;;;;;4.20;4.00;;;;;;;7.33;100.00;100807.34;6081299;23;20089;-73
2023/11/16 00:56:24;;;;;;;7.65;5.07;;;;;;;5.54;100.00;100513.00;6077182;23;20491;-72
2023/11/16 00:58:51;;;;;;;5.65;5.35;;;;;;;6.63;100.00;100682.91;6081560;23;20093;-73
2023/11/16 01:01:17;;;;;;;4.25;3.97;;;;;;;6.70;100.00;100719.16;6076940;23;20018;-72
2023/11/16 01:03:44;;;;;;;5.85;4.72;;;;;;;5.89;100.00;100595.09;6052176;23;20421;-74
2023/11/16 01:06:10;;;;;;;4.32;4.05;;;;;;;7.00;100.00;100745.03;6079816;18;20142;-73
2023/11/16 01:08:37;;;;;;;4.97;4.57;;;;;;;7.31;100.00;100804.78;6018362;23;20525;-72
2023/11/16 01:11:12;;;;;;;4.40;4.20;;;;;;;7.31;100.00;100816.97;5999792;23;20379;-72
2023/11/16 01:13:39;;;;;;;4.55;4.28;;;;;;;7.39;100.00;100818.38;6024325;23;20023;-72
2023/11/16 01:16:15;;;;;;;4.28;4.07;;;;;;;7.17;100.00;100810.50;5999178;23;20054;-72
2023/11/16 01:18:46;;;;;;;3.95;3.75;;;;;;;7.04;100.00;100749.25;5998530;23;20574;-72
2023/11/16 01:21:14;;;;;;;6.72;4.43;;;;;;;6.97;100.00;100748.59;5997819;23;20525;-72
2023/11/16 01:23:41;;;;;;;4.18;3.97;;;;;;;6.93;100.00;100740.94;6026133;23;20050;-71
2023/11/16 01:26:15;;;;;;;4.63;4.32;;;;;;;7.03;100.00;100750.13;5996983;23;20057;-71
2023/11/16 01:28:47;;;;;;;4.55;4.15;;;;;;;6.69;100.00;100690.50;6025012;23;20037;-72
2023/11/16 01:31:14;;;;;;;4.05;3.85;;;;;;;7.06;100.00;100757.84;5996975;23;20051;-72
2023/11/16 01:33:42;;;;;;;4.75;4.45;;;;;;;7.32;100.00;100808.25;6026527;23;20335;-72
2023/11/16 01:36:09;;;;;;;4.88;4.57;;;;;;;6.63;100.00;100709.00;6023437;23;20063;-73
2023/11/16 01:38:36;;;;;;;4.35;4.15;;;;;;;7.30;100.00;100829.19;5992438;23;20035;-72
2023/11/16 01:41:08;;;;;;;4.65;4.45;;;;;;;7.32;100.00;100832.59;5993361;23;20168;-73
2023/11/16 01:43:36;;;;;;;5.60;4.32;;;;;;;7.32;100.00;100837.81;6020534;23;20114;-72
2023/11/16 01:46:09;;;;;;;4.30;4.10;;;;;;;7.16;100.00;100819.25;5997867;23;20031;-71
2023/11/16 01:48:39;;;;;;;4.28;4.07;;;;;;;7.33;100.00;100830.81;6024445;23;20698;-70
2023/11/16 01:51:11;;;;;;;4.78;4.43;;;;;;;6.71;100.00;100728.66;5990022;23;20731;-72
2023/11/16 01:53:41;;;;;;;4.78;4.43;;;;;;;6.74;100.00;100725.13;6025573;23;20042;-72
2023/11/16 01:56:09;;;;;;;4.10;3.90;;;;;;;7.36;100.00;100828.97;6018756;23;20023;-71
2023/11/16 01:58:37;;;;;;;3.97;3.78;;;;;;;7.36;100.00;100830.72;6023287;23;20030;-71
2023/11/16 02:01:04;;;;;;;4.75;4.55;;;;;;;7.36;100.00;100830.72;5991070;23;20093;-71
2023/11/16 02:03:32;;;;;;;4.13;3.92;;;;;;;6.38;100.00;100678.56;6024022;23;20100;-72
2023/11/16 02:05:59;;;;;;;6.50;4.13;;;;;;;7.30;100.00;100828.34;5997063;23;20045;-72
2023/11/16 02:08:25;;;;;;;9.38;4.10;;;;;;;7.30;100.00;100839.63;6019197;23;20019;-72
2023/11/16 02:10:52;;;;;;;5.35;4.97;;;;;;;6.81;100.00;100759.66;6018274;23;20038;-72
2023/11/16 02:13:25;;;;;;;4.07;3.88;;;;;;;6.88;100.00;100768.97;5992100;23;19999;-72
2023/11/16 02:15:55;;;;;;;4.55;4.25;;;;;;;7.12;100.00;100802.00;6024598;23;20081;-72
2023/11/16 02:18:25;;;;;;;4.60;4.30;;;;;;;7.10;100.00;100808.19;5996273;23;20003;-71
2023/11/16 02:20:53;;;;;;;5.65;5.30;;;;;;;6.87;100.00;100788.13;6018579;23;20098;-71
2023/11/16 02:23:21;;;;;;;4.43;4.22;;;;;;;7.34;100.00;100840.38;5990836;23;20069;-70
2023/11/16 02:25:51;;;;;;;5.28;4.78;;;;;;;7.34;100.00;100848.22;6021154;23;20064;-70
2023/11/16 02:28:20;;;;;;;4.68;4.35;;;;;;;6.92;100.00;100804.47;5993070;23;20035;-72
2023/11/16 02:30:47;;;;;;;4.60;4.40;;;;;;;7.18;100.00;100837.47;6014460;23;20105;-68
2023/11/16 02:33:13;;;;;;;11.35;4.25;;;;;;;6.85;100.00;100767.28;6021482;23;20019;-71
2023/11/16 02:35:40;;;;;;;5.13;4.10;;;;;;;7.21;100.00;100815.63;6024184;23;20038;-71
2023/11/16 02:38:07;;;;;;;6.15;4.45;;;;;;;7.47;100.00;100859.03;5989593;23;20041;-71
2023/11/16 02:40:36;;;;;;;4.47;4.18;;;;;;;7.32;100.00;100824.75;6021314;23;20082;-71
2023/11/16 02:43:03;;;;;;;5.00;4.75;;;;;;;7.37;100.00;100841.09;5988633;23;20083;-71
2023/11/16 02:45:32;;;;;;;4.47;4.20;;;;;;;7.41;100.00;100841.84;6004694;23;20073;-71
2023/11/16 02:47:59;;;;;;;4.05;3.85;;;;;;;7.45;100.00;100834.75;5971695;23;20082;-71
2023/11/16 02:50:27;;;;;;;4.20;4.00;;;;;;;6.84;100.00;100736.06;6018130;23;20565;-71
2023/11/16 02:52:53;;;;;;;5.65;5.40;;;;;;;7.30;100.00;100821.34;6019979;23;20029;-72
2023/11/16 02:55:24;;;;;;;4.18;3.97;;;;;;;7.19;100.00;100798.25;6002618;23;20090;-71
2023/11/16 02:57:57;;;;;;;11.23;4.28;;;;;;;7.17;100.00;100783.56;6022457;23;20050;-71
2023/11/16 03:00:24;;;;;;;5.55;4.85;;;;;;;7.42;100.00;100830.50;6023089;23;20049;-71
2023/11/16 03:02:51;;;;;;;5.97;5.68;;;;;;;7.14;100.00;100789.75;5988074;23;20380;-71
2023/11/16 03:05:21;;;;;;;5.43;4.63;;;;;;;7.30;100.00;100823.97;6020249;23;20081;-71
2023/11/16 03:07:52;;;;;;;4.00;3.80;;;;;;;7.10;100.00;100795.97;6017296;23;20023;-70
2023/11/16 03:10:19;;;;;;;4.10;3.90;;;;;;;6.84;100.00;100751.72;6000934;23;20031;-71
2023/11/16 03:12:46;;;;;;;5.35;4.65;;;;;;;5.62;100.00;100576.06;6022305;23;20481;-71
2023/11/16 03:15:13;;;;;;;4.55;4.35;;;;;;;6.55;100.00;100748.38;6019640;23;20011;-70
2023/11/16 03:17:43;;;;;;;4.50;4.20;;;;;;;6.76;100.00;100810.22;6021197;23;20061;-70
2023/11/16 03:20:12;;;;;;;4.18;3.97;;;;;;;7.01;100.00;100855.47;5996852;23;20861;-70
2023/11/16 03:22:39;;;;;;;4.05;3.85;;;;;;;7.09;100.00;100869.94;6022049;23;20129;-71
2023/11/16 03:25:07;;;;;;;5.65;4.30;;;;;;;6.85;100.00;100845.56;6017822;23;20025;-71
2023/11/16 03:27:34;;;;;;;4.63;4.38;;;;;;;6.57;100.00;100812.63;6022145;23;20562;-71
2023/11/16 03:30:03;;;;;;;3.97;3.78;;;;;;;7.05;100.00;100889.22;6023835;23;20085;-71
2023/11/16 03:32:30;;;;;;;4.60;4.40;;;;;;;7.01;100.00;100889.41;6019136;23;20608;-71
2023/11/16 03:34:56;;;;;;;5.22;4.97;;;;;;;6.76;100.00;100862.38;6002179;23;20810;-71
2023/11/16 03:37:23;;;;;;;4.07;3.88;;;;;;;6.96;100.00;100884.34;6018561;23;20386;-71
2023/11/16 03:39:49;;;;;;;4.30;4.10;;;;;;;6.83;100.00;100878.66;5998298;23;20692;-71
2023/11/16 03:42:16;;;;;;;4.93;4.50;;;;;;;7.03;100.00;100896.25;6020416;23;20019;-71
2023/11/16 03:44:43;;;;;;;8.20;4.20;;;;;;;6.63;100.00;100850.66;5986885;23;20030;-71
2023/11/16 03:47:10;;;;;;;8.75;4.30;;;;;;;6.90;100.00;100888.00;6023705;23;20033;-71
2023/11/16 03:49:36;;;;;;;5.15;4.68;;;;;;;6.73;100.00;100859.03;5965996;23;20047;-71
2023/11/16 03:52:03;;;;;;;4.32;4.03;;;;;;;6.98;100.00;100885.13;6030471;23;20508;-72
2023/11/16 03:54:29;;;;;;;3.95;3.75;;;;;;;6.58;100.00;100813.47;5993224;23;20654;-72
2023/11/16 03:56:56;;;;;;;5.47;5.18;;;;;;;6.90;100.00;100874.13;6016688;23;20031;-72
2023/11/16 03:59:24;;;;;;;5.82;4.32;;;;;;;7.09;100.00;100905.63;6021854;23;20497;-71
2023/11/16 04:01:51;;;;;;;4.60;4.30;;;;;;;7.12;100.00;100914.22;5995676;23;20047;-71
2023/11/16 04:04:19;;;;;;;4.00;3.80;;;;;;;7.14;100.00;100908.94;5995143;23;20608;-72
2023/11/16 04:06:49;;;;;;;4.47;4.22;;;;;;;6.78;100.00;100852.75;6025401;23;20058;-73
2023/11/16 04:09:16;;;;;;;3.88;3.67;;;;;;;7.10;100.00;100892.53;5997854;23;20533;-72
2023/11/16 04:11:44;;;;;;;4.25;4.05;;;;;;;7.14;100.00;100891.53;5998877;23;20031;-71
2023/11/16 04:14:12;;;;;;;4.78;4.50;;;;;;;6.94;100.00;100852.22;5969606;23;20022;-71
2023/11/16 04:16:38;;;;;;;4.32;4.13;;;;;;;7.16;100.00;100894.94;6025858;23;20818;-71
2023/11/16 04:19:05;;;;;;;4.93;4.53;;;;;;;7.03;100.00;100856.28;5990162;23;20186;-71
2023/11/16 04:21:36;;;;;;;4.28;4.07;;;;;;;7.12;100.00;100884.66;6025913;23;20667;-72
2023/11/16 04:24:08;;;;;;;4.25;4.05;;;;;;;6.73;100.00;100812.91;6002335;23;20595;-71
2023/11/16 04:26:37;;;;;;;5.72;5.30;;;;;;;6.61;100.00;100802.06;6021826;23;20010;-71
2023/11/16 04:29:05;;;;;;;4.45;4.25;;;;;;;6.05;100.00;100717.06;5999486;23;20827;-71
2023/11/16 04:31:33;;;;;;;5.35;5.05;;;;;;;6.70;100.00;100815.66;6019846;23;20046;-72
2023/11/16 04:34:00;;;;;;;4.95;4.65;;;;;;;7.04;100.00;100884.09;5994026;23;20035;-71
2023/11/16 04:36:30;;;;;;;3.97;3.78;;;;;;;6.45;100.00;100773.06;6024119;23;20035;-71
2023/11/16 04:38:59;;;;;;;5.85;5.55;;;;;;;6.89;100.00;100856.75;6020251;23;20078;-71
2023/11/16 04:41:28;;;;;;;4.90;4.35;;;;;;;7.06;100.00;100885.72;6025193;23;20065;-72
2023/11/16 04:43:57;;;;;;;4.47;4.18;;;;;;;7.01;100.00;100898.06;6023048;23;20038;-72
2023/11/16 04:46:27;;;;;;;4.47;4.18;;;;;;;7.03;100.00;100879.75;6024971;23;20676;-72
2023/11/16 04:48:54;;;;;;;5.45;5.15;;;;;;;6.45;100.00;100791.28;6001947;23;20027;-72
2023/11/16 04:51:22;;;;;;;4.30;4.10;;;;;;;6.39;100.00;100785.41;6027528;23;20114;-72
2023/11/16 04:53:50;;;;;;;10.13;5.13;;;;;;;6.81;100.00;100869.19;5972995;23;20038;-72
2023/11/16 04:56:17;;;;;;;4.18;3.97;;;;;;;6.76;100.00;100862.38;6020054;23;20051;-71
2023/11/16 04:58:45;;;;;;;6.22;4.50;;;;;;;6.42;100.00;100822.69;5998042;23;20080;-72
2023/11/16 05:01:15;;;;;;;5.97;3.92;;;;;;;6.61;100.00;100852.44;6023018;23;20050;-71
2023/11/16 05:03:45;;;;;;;4.82;4.53;;;;;;;6.65;100.00;100863.63;6026179;23;20033;-71
2023/11/16 05:06:13;;;;;;;3.83;3.67;;;;;;;6.89;100.00;100912.38;5998958;23;20071;-71
2023/11/16 05:08:42;;;;;;;4.30;4.10;;;;;;;6.75;100.00;100888.50;6020367;23;20455;-72
2023/11/16 05:11:09;;;;;;;4.10;3.90;;;;;;;6.78;100.00;100885.81;6001105;23;20023;-72
2023/11/16 05:13:35;;;;;;;4.55;4.25;;;;;;;6.81;100.00;100884.84;5997898;23;20030;-72
2023/11/16 05:16:05;;;;;;;4.35;4.15;;;;;;;6.94;100.00;100912.25;6022776;23;20092;-71
2023/11/16 05:18:31;;;;;;;4.00;3.80;;;;;;;6.94;100.00;100907.03;5993878;23;21085;-72
2023/11/16 05:21:01;;;;;;;5.57;5.28;;;;;;;6.91;100.00;100901.91;5973849;23;20098;-72
2023/11/16 05:23:28;;;;;;;4.60;4.30;;;;;;;6.48;100.00;100836.38;6023954;23;20064;-72
2023/11/16 05:25:56;;;;;;;4.10;3.90;;;;;;;6.92;100.00;100903.63;6020685;23;20031;-71
2023/11/16 05:28:22;;;;;;;3.88;3.60;;;;;;;6.70;100.00;100872.19;6022294;23;20086;-72
2023/11/16 05:30:50;;;;;;;5.32;5.13;;;;;;;6.41;100.00;100814.00;5988671;23;20028;-72
2023/11/16 05:33:18;;;;;;;4.35;4.15;;;;;;;6.75;100.00;100875.47;6027087;23;20340;-71
2023/11/16 05:35:48;;;;;;;3.88;3.72;;;;;;;6.54;100.00;100817.06;5996351;23;20085;-72
2023/11/16 05:38:17;;;;;;;4.70;4.30;;;;;;;6.91;100.00;100874.03;5996635;23;20081;-72
2023/11/16 05:40:44;;;;;;;4.50;4.30;;;;;;;6.97;100.00;100909.50;6022536;23;20030;-73
2023/11/16 05:43:11;;;;;;;3.88;3.67;;;;;;;6.74;100.00;100851.16;5995203;23;20181;-71
2023/11/16 05:45:40;;;;;;;4.20;4.00;;;;;;;7.03;100.00;100891.03;6025298;23;20496;-72
2023/11/16 05:48:08;;;;;;;4.90;4.60;;;;;;;6.96;100.00;100871.28;6022552;23;20047;-72
2023/11/16 05:50:37;;;;;;;4.20;3.90;;;;;;;6.95;100.00;100867.81;6021991;23;20093;-72
2023/11/16 05:53:08;;;;;;;4.28;3.90;;;;;;;6.69;100.00;100820.91;5996661;23;20089;-72
2023/11/16 05:55:36;;;;;;;3.95;3.75;;;;;;;6.12;100.00;100729.81;6015442;23;20047;-71
2023/11/16 05:58:04;;;;;;;9.35;4.22;;;;;;;6.72;100.00;100820.81;5998120;23;20051;-71
2023/11/16 06:00:33;;;;;;;4.93;4.15;;;;;;;5.72;100.00;100644.31;6023623;23;20029;-72
2023/11/16 06:03:00;;;;;;;5.88;5.50;;;;;;;6.98;100.00;100857.28;5989889;23;20535;-72
2023/11/16 06:05:27;;;;;;;3.83;3.70;;;;;;;6.96;100.00;100845.19;6024709;23;20038;-72
2023/11/16 06:07:55;;;;;;;4.90;4.50;;;;;;;6.98;100.00;100849.47;5995206;23;20027;-72
2023/11/16 06:10:21;;;;;;;4.07;3.88;;;;;;;7.04;100.00;100855.38;6003189;23;20024;-71
2023/11/16 06:12:50;;;;;;;8.93;6.22;;;;;;;7.08;100.00;100847.38;6016526;23;20440;-71
2023/11/16 06:15:18;;;;;;;4.65;4.35;;;;;;;6.81;100.00;100783.13;6004017;23;20030;-72
2023/11/16 06:17:46;;;;;;;4.53;4.28;;;;;;;7.01;100.00;100806.75;6025161;23;20342;-71
2023/11/16 06:20:12;;;;;;;4.72;4.43;;;;;;;7.04;100.00;100808.41;6020881;23;20031;-71
2023/11/16 06:22:40;;;;;;;4.85;4.45;;;;;;;6.41;100.00;100706.28;5999212;23;20022;-71
2023/11/16 06:25:10;;;;;;;3.90;3.72;;;;;;;6.34;100.00;100696.06;6015970;23;20980;-72
2023/11/16 06:27:38;;;;;;;4.00;3.80;;;;;;;6.77;100.00;100748.47;6026887;23;20018;-72
2023/11/16 06:30:08;;;;;;;3.90;3.70;;;;;;;6.47;100.00;100690.44;5996092;23;20501;-71
2023/11/16 06:32:36;;;;;;;4.35;4.15;;;;;;;6.32;100.00;100678.78;6020736;23;20018;-72
2023/11/16 06:35:03;;;;;;;5.45;5.05;;;;;;;6.32;100.00;100684.00;5993800;23;23049;-72
2023/11/16 06:37:31;;;;;;;4.05;3.85;;;;;;;6.94;100.00;100781.78;6022965;23;20033;-70
2023/11/16 06:39:58;;;;;;;4.50;4.30;;;;;;;6.91;100.00;100782.72;6020346;23;20390;-72
2023/11/16 06:42:24;;;;;;;4.45;4.20;;;;;;;6.77;100.00;100748.47;6023034;23;20014;-72
2023/11/16 06:44:52;;;;;;;6.43;6.07;;;;;;;6.46;100.00;100709.59;6015357;23;20347;-71
2023/11/16 06:47:19;;;;;;;4.53;4.22;;;;;;;6.36;100.00;100707.28;6001265;23;20026;-72
2023/11/16 06:49:49;;;;;;;4.60;4.40;;;;;;;6.78;100.00;100786.69;6019602;23;20093;-72
2023/11/16 06:52:17;;;;;;;4.45;3.70;;;;;;;6.57;100.00;100757.84;6023029;23;20627;-71
2023/11/16 06:54:43;;;;;;;6.60;4.15;;;;;;;6.21;100.00;100707.81;5996210;23;20705;-72
2023/11/16 06:57:10;;;;;;;3.70;3.60;;;;;;;6.77;100.00;100792.81;6018227;23;20041;-71
2023/11/16 06:59:38;;;;;;;4.00;3.80;;;;;;;5.49;100.00;100604.28;5995846;23;20027;-71
2023/11/16 07:02:07;;;;;;;4.30;4.00;;;;;;;6.45;100.00;100763.47;6020512;23;20022;-71
2023/11/16 07:04:37;;;;;;;3.95;3.75;;;;;;;6.82;100.00;100822.19;5998897;23;20034;-71
2023/11/16 07:07:04;;;;;;;4.70;4.50;;;;;;;6.85;100.00;100831.66;6017884;23;20509;-71
2023/11/16 07:09:31;;;;;;;4.00;3.80;;;;;;;6.30;100.00;100737.94;6021629;23;20037;-72
2023/11/16 07:11:59;;;;;;;3.80;3.65;;;;;;;6.36;100.00;100746.41;6021385;23;20090;-72
2023/11/16 07:14:28;;;;;;;4.53;4.30;;;;;;;6.88;100.00;100808.94;6018434;23;20042;-72
2023/11/16 07:17:10;;;;;;;4.53;4.22;;;;;;;6.67;100.00;100770.56;6020249;23;20082;-70
2023/11/16 07:19:38;;;;;;;4.20;4.00;;;;;;;6.92;100.00;100789.66;6020082;23;20014;-73
2023/11/16 07:22:05;;;;;;;5.70;4.65;;;;;;;6.92;100.00;100788.81;6020878;23;20046;-70
2023/11/16 07:24:32;;;;;;;6.07;4.00;;;;;;;6.34;100.00;100692.63;6022733;23;20018;-70
2023/11/16 07:27:01;;;;;;;6.18;5.68;;;;;;;6.96;100.00;100785.19;6017823;23;20038;-70
2023/11/16 07:29:28;;;;;;;5.18;4.78;;;;;;;6.37;100.00;100685.56;5998058;23;20030;-70
2023/11/16 07:31:54;;;;;;;4.53;4.13;;;;;;;6.57;100.00;100718.75;6018113;23;20037;-72
2023/11/16 07:34:23;;;;;;;4.43;4.20;;;;;;;6.61;100.00;100709.03;6000269;23;20098;-70
2023/11/16 07:36:50;;;;;;;5.68;5.38;;;;;;;7.05;100.00;100766.56;6019283;23;20043;-71
2023/11/16 07:39:17;;;;;;;4.00;3.80;;;;;;;7.07;100.00;100761.31;6020608;23;20026;-70
2023/11/16 07:41:44;;;;;;;4.32;4.13;;;;;;;7.09;100.00;100749.91;5998413;23;20023;-70
2023/11/16 07:44:11;;;;;;;4.20;4.00;;;;;;;7.07;100.00;100743.88;6010741;23;20015;-71
2023/11/16 07:46:38;;;;;;;3.78;3.60;;;;;;;6.99;100.00;100706.78;6021501;23;20019;-71
2023/11/16 07:49:05;;;;;;;8.13;4.10;;;;;;;7.15;100.00;100726.19;5985102;23;20030;-71
2023/11/16 07:51:32;;;;;;;4.03;3.83;;;;;;;6.82;100.00;100667.47;6020419;23;20041;-71
2023/11/16 07:54:03;;;;;;;4.63;4.40;;;;;;;6.48;100.00;100619.16;5995891;23;20096;-70
2023/11/16 07:56:31;;;;;;;4.15;3.95;;;;;;;6.67;100.00;100642.78;5984240;23;20026;-71
2023/11/16 07:58:59;;;;;;;6.05;5.78;;;;;;;7.24;100.00;100721.56;5999961;23;20033;-71
2023/11/16 08:01:38;;;;;;;10.30;4.32;;;;;;;7.34;100.00;100723.75;6017478;23;20081;-71
2023/11/16 08:04:05;;;;;;;8.88;4.10;;;;;;;6.90;100.00;100639.31;5994947;23;20027;-71
2023/11/16 08:06:35;;;;;;;4.25;4.05;;;;;;;7.03;100.00;100650.97;6023660;23;20023;-71
2023/11/16 08:09:02;;;;;;;5.80;5.50;;;;;;;6.96;100.00;100613.84;6013761;23;20111;-71
2023/11/16 08:11:29;;;;;;;5.05;4.65;;;;;;;6.92;100.00;100578.34;6022559;23;20031;-71
2023/11/16 08:13:57;;;;;;;7.45;4.10;;;;;;;7.54;100.00;100680.34;5992615;23;20045;-71
2023/11/16 08:16:23;;;;;;;4.15;3.95;;;;;;;6.96;100.00;100572.09;6018988;23;20030;-70
2023/11/16 08:18:52;;;;;;;5.70;5.40;;;;;;;7.67;100.00;100683.31;6017511;23;20094;-71
2023/11/16 08:21:19;;;;;;;4.55;4.30;;;;;;;7.70;100.00;100675.34;6002272;23;20510;-71
2023/11/16 08:23:45;;;;;;;4.47;4.20;;;;;;;7.44;100.00;100617.19;6017990;23;20069;-72
2023/11/16 08:26:18;;;;;;;4.80;4.20;;;;;;;7.47;100.00;100614.44;5994020;23;20517;-72
2023/11/16 08:28:47;;;;;;;5.00;4.65;;;;;;;7.31;100.00;100576.81;6018677;23;20638;-73
2023/11/16 08:31:15;;;;;;;4.35;4.15;;;;;;;7.89;100.00;100654.53;6017001;23;20084;-71
2023/11/16 08:33:44;;;;;;;4.35;4.13;;;;;;;7.48;100.00;100576.97;5992368;23;20596;-72
2023/11/16 08:36:15;;;;;;;4.47;4.28;;;;;;;7.66;100.00;100577.09;6013287;23;20632;-71
2023/11/16 08:38:42;;;;;;;4.28;4.07;;;;;;;7.83;100.00;100587.72;5990685;23;20632;-71
2023/11/16 08:41:16;;;;;;;4.55;4.30;;;;;;;8.16;100.00;100615.94;6017094;23;20513;-71
2023/11/16 08:43:43;;;;;;;4.70;4.40;;;;;;;7.64;100.00;100521.47;6018819;23;20500;-71
2023/11/16 08:46:20;;;;;;;4.55;4.35;;;;;;;8.13;100.00;100562.00;6006937;23;20027;-71
2023/11/16 08:48:47;;;;;;;4.38;4.18;;;;;;;8.33;100.00;100571.56;6019795;23;20081;-71
2023/11/16 08:51:16;;;;;;;4.93;4.53;;;;;;;8.49;100.00;100582.22;6025137;23;20460;-70
2023/11/16 08:53:44;;;;;;;4.10;3.90;;;;;;;8.32;100.00;100516.75;6024781;23;20070;-70
2023/11/16 08:56:11;;;;;;;4.40;4.20;;;;;;;8.28;100.00;100468.13;5977207;23;20102;-70
2023/11/16 08:58:47;;;;;;;4.30;4.10;;;;;;;8.69;100.00;100502.81;6008017;23;20022;-71
2023/11/16 09:01:19;;;;;;;4.40;4.13;;;;;;;8.18;100.00;100390.13;5979997;23;20109;-72
2023/11/16 09:03:45;;;;;;;4.25;4.05;;;;;;;8.77;100.00;100473.69;6021627;23;20275;-72
2023/11/16 09:06:16;;;;;;;4.97;4.68;;;;;;;8.59;100.00;100408.25;5980314;23;20015;-72
2023/11/16 09:08:44;;;;;;;9.25;4.50;;;;;;;8.67;100.00;100373.88;6021562;23;20107;-72
2023/11/16 09:11:17;;;;;;;4.93;4.68;;;;;;;8.49;100.00;100327.69;6011073;23;20034;-72
2023/11/16 09:13:44;;;;;;;4.40;4.20;;;;;;;8.17;100.00;100289.09;5987580;23;20034;-73
2023/11/16 09:16:11;;;;;;;4.60;4.40;;;;;;;8.50;100.00;100351.16;6022981;23;20027;-72
2023/11/16 09:18:41;;;;;;;4.90;4.60;;;;;;;8.58;100.00;100349.03;6003770;23;20044;-72
2023/11/16 09:21:09;;;;;;;4.57;4.38;;;;;;;8.76;100.00;100365.56;6018100;23;20027;-72
2023/11/16 09:23:36;;;;;;;4.35;4.15;;;;;;;8.92;100.00;100362.16;6022396;23;20521;-72
2023/11/16 09:26:03;;;;;;;5.70;5.32;;;;;;;8.89;100.00;100312.63;6022470;23;20015;-72
2023/11/16 09:28:30;;;;;;;4.78;4.07;;;;;;;8.54;100.00;100219.31;6024832;23;20029;-72
2023/11/16 09:31:01;;;;;;;6.03;5.73;;;;;;;9.07;100.00;100274.16;6017090;23;20486;-72
2023/11/16 09:33:28;;;;;;;4.40;4.20;;;;;;;8.32;100.00;100121.97;6025651;23;20030;-71
2023/11/16 09:35:55;;;;;;;4.45;4.25;;;;;;;8.75;100.00;100153.72;5996667;23;20038;-70
2023/11/16 09:38:23;;;;;;;4.63;4.38;;;;;;;9.10;100.00;100182.38;6016727;23;20043;-70
2023/11/16 09:40:50;;;;;;;6.22;5.78;;;;;;;8.48;100.00;100088.88;6024041;23;20033;-70
2023/11/16 09:43:16;;;;;;;4.93;4.68;;;;;;;8.88;100.00;100159.13;6018519;23;20003;-71
2023/11/16 09:45:47;;;;;;;4.57;4.28;;;;;;;9.16;100.00;100198.63;6023399;23;20045;-70
2023/11/16 09:48:20;;;;;;;5.85;5.45;;;;;;;9.31;100.00;100201.31;6018964;23;20380;-71
2023/11/16 09:50:53;;;;;;;;;;;;;;;9.42;100.00;100200.72;5997413;23;20111;-71
2023/11/16 09:53:23;;;;;;;5.00;4.70;;;;;;;9.36;100.00;100178.31;6022420;23;19917;-70
2023/11/16 09:56:00;;;;;;;4.97;4.45;;;;;;;9.38;100.00;100160.75;5999182;23;20055;-70
2023/11/16 09:58:28;;;;;;;5.15;4.78;;;;;;;7.81;100.00;99897.28;5994073;23;20015;-71
2023/11/16 10:00:56;;;;;;;6.40;6.00;;;;;;;9.22;100.00;100115.41;6021628;23;20540;-71
2023/11/16 10:03:26;;;;;;;9.48;5.05;;;;;;;8.71;100.00;100063.25;5996070;23;20375;-69
2023/11/16 10:05:56;;;;;;;5.72;5.10;;;;;;;8.78;100.00;100099.47;6022781;23;20018;-70
2023/11/16 10:08:28;;;;;;;4.70;4.50;;;;;;;8.76;100.00;100090.03;5996213;23;20090;-70
2023/11/16 10:11:04;;;;;;;7.78;6.40;;;;;;;8.78;100.00;100112.56;6025926;23;20069;-71
2023/11/16 10:13:32;;;;;;;5.00;4.60;;;;;;;8.61;100.00;100096.06;5992780;23;20019;-71
2023/11/16 10:16:04;;;;;;;4.30;4.10;;;;;;;8.32;100.00;100090.59;6022621;23;20038;-71
2023/11/16 10:18:31;;;;;;;6.13;4.60;;;;;;;8.54;100.00;100151.31;5999627;23;20466;-71
2023/11/16 10:20:58;;;;;;;5.72;5.40;;;;;;;8.57;100.00;100173.84;5998647;23;20031;-71
2023/11/16 10:23:24;;;;;;;5.00;4.70;;;;;;;8.78;100.00;100188.44;6022760;23;20466;-70
2023/11/16 10:25:51;;;;;;;4.85;4.47;;;;;;;8.70;100.00;100176.66;6004876;23;20022;-71
2023/11/16 10:28:22;;;;;;;5.15;4.68;;;;;;;8.68;100.00;100192.47;6022378;23;20086;-71
2023/11/16 10:30:53;;;;;;;6.30;5.65;;;;;;;8.06;100.00;100115.44;5965359;23;20023;-69
2023/11/16 10:33:23;;;;;;;5.95;5.30;;;;;;;8.59;100.00;100209.44;5972111;23;20078;-71
2023/11/16 10:35:52;;;;;;;4.68;4.38;;;;;;;8.37;100.00;100157.38;6019561;23;20054;-71
2023/11/16 10:38:23;;;;;;;5.65;4.93;;;;;;;8.47;100.00;100167.41;6003818;23;20031;-71
2023/11/16 10:40:51;;;;;;;6.75;6.20;;;;;;;8.26;100.00;100136.19;5995493;23;20031;-71
2023/11/16 10:43:25;;;;;;;5.28;4.97;;;;;;;8.32;100.00;100164.63;6001744;23;20286;-70
2023/11/16 10:45:58;;;;;;;5.40;5.03;;;;;;;8.33;100.00;100179.38;6023595;23;20699;-71
2023/11/16 10:48:25;;;;;;;4.68;4.38;;;;;;;8.36;100.00;100204.56;5994722;23;20031;-70
2023/11/16 10:50:55;;;;;;;6.78;6.20;;;;;;;8.45;100.00;100196.25;6015039;23;20107;-72
2023/11/16 10:53:23;;;;;;;5.82;4.63;;;;;;;8.03;100.00;100116.44;6006052;23;20011;-72
2023/11/16 10:55:52;;;;;;;5.07;4.65;;;;;;;8.42;100.00;100175.50;5966951;23;20023;-72
2023/11/16 10:58:20;;;;;;;5.45;4.93;;;;;;;8.12;100.00;100126.44;6022965;23;20034;-72
2023/11/16 11:00:52;;;;;;;5.30;4.85;;;;;;;8.55;100.00;100187.00;5992013;23;20019;-71
2023/11/16 11:03:20;;;;;;;4.80;4.50;;;;;;;8.32;100.00;100127.19;5997519;23;20026;-71
2023/11/16 11:05:52;;;;;;;5.43;4.63;;;;;;;8.55;100.00;100160.00;6001477;23;20030;-71
2023/11/16 11:08:19;;;;;;;4.20;4.00;;;;;;;8.51;100.00;100158.47;5991089;23;20054;-70
2023/11/16 11:10:47;;;;;;;4.97;4.72;;;;;;;8.50;100.00;100164.63;6021918;23;20042;-72
2023/11/16 11:13:21;;;;;;;4.47;4.25;;;;;;;8.09;100.00;100116.13;6020391;23;20520;-71
2023/11/16 11:15:50;;;;;;;4.65;4.35;;;;;;;7.39;100.00;99997.81;6020206;23;20023;-71
2023/11/16 11:18:24;;;;;;;6.13;5.10;;;;;;;8.70;100.00;100197.59;5974267;23;20619;-71
2023/11/16 11:21:05;;;;;;;5.82;5.43;;;;;;;8.68;100.00;100176.75;6018399;23;20023;-71
2023/11/16 11:23:31;;;;;;;5.47;5.07;;;;;;;8.19;100.00;100106.06;5996076;23;20015;-71
2023/11/16 11:26:05;;;;;;;8.82;6.00;;;;;;;8.13;100.00;100095.94;6017991;23;20029;-71
2023/11/16 11:28:35;;;;;;;5.20;4.90;;;;;;;8.35;100.00;100134.88;6018649;23;20671;-71
2023/11/16 11:31:04;;;;;;;7.10;6.35;;;;;;;8.57;100.00;100179.09;5965974;23;20031;-71